createdAt,value
2023-12-22T00:02:46.541Z,4.25
2023-12-22T00:05:49.595Z,4.23
2023-12-22T00:08:52.778Z,4.24
2023-12-22T00:11:55.857Z,4.22
2023-12-22T00:14:58.890Z,4.26
2023-12-22T00:18:01.919Z,4.30
2023-12-22T00:21:05.316Z,4.31
2023-12-22T00:24:08.454Z,4.33
2023-12-22T00:27:11.509Z,4.29
2023-12-22T00:30:15.318Z,4.26
2023-12-22T00:33:18.432Z,4.21
2023-12-22T00:36:25.488Z,4.18
2023-12-22T00:39:28.665Z,4.16
2023-12-22T00:42:31.667Z,4.16
2023-12-22T00:45:34.610Z,4.07
2023-12-22T00:48:37.745Z,4.03
2023-12-22T00:51:40.916Z,3.96
2023-12-22T00:54:44.003Z,3.88
2023-12-22T00:57:47.339Z,3.82
2023-12-22T01:00:50.577Z,3.76
2023-12-22T01:03:53.700Z,3.69
2023-12-22T01:06:56.884Z,3.66
2023-12-22T01:10:04.895Z,3.66
2023-12-22T01:13:08.262Z,3.66
2023-12-22T01:16:11.911Z,3.70
2023-12-22T01:19:15.071Z,3.75
2023-12-22T01:22:18.387Z,3.80
2023-12-22T01:25:21.803Z,3.82
2023-12-22T01:28:25.992Z,3.83
2023-12-22T01:31:29.431Z,3.77
2023-12-22T01:34:33.265Z,3.75
2023-12-22T01:37:39.227Z,3.68
2023-12-22T01:40:42.591Z,3.57
2023-12-22T01:43:45.917Z,3.54
2023-12-22T01:46:51.136Z,3.48
2023-12-22T01:49:54.665Z,3.39
2023-12-22T01:52:58.062Z,3.29
2023-12-22T01:56:06.170Z,3.16
2023-12-22T01:59:10.028Z,3.05
2023-12-22T02:02:13.434Z,2.95
2023-12-22T02:05:16.550Z,2.91
2023-12-22T02:08:20.070Z,2.92
2023-12-22T02:11:23.170Z,2.94
2023-12-22T02:14:26.765Z,2.98
2023-12-22T02:17:41.850Z,3.00
2023-12-22T02:20:45.544Z,2.93
2023-12-22T02:23:49.167Z,2.90
2023-12-22T02:26:52.970Z,2.80
2023-12-22T02:30:07.579Z,2.69
2023-12-22T02:33:12.344Z,2.54
2023-12-22T02:36:18.054Z,2.45
2023-12-22T02:39:22.051Z,2.35
2023-12-22T02:42:31.177Z,2.28
2023-12-22T02:45:34.580Z,2.22
2023-12-22T02:48:37.813Z,2.19
2023-12-22T02:51:41.132Z,2.15
2023-12-22T02:55:04.534Z,2.11
2023-12-22T02:58:07.830Z,2.05
2023-12-22T03:01:33.744Z,2.05
2023-12-22T03:04:37.124Z,2.08
2023-12-22T03:07:40.166Z,2.16
2023-12-22T03:10:43.196Z,2.22
2023-12-22T03:13:47.201Z,2.25
2023-12-22T03:16:50.099Z,2.27
2023-12-22T03:19:53.102Z,2.27
2023-12-22T03:22:56.020Z,2.24
2023-12-22T03:25:58.941Z,2.19
2023-12-22T03:29:01.864Z,2.16
2023-12-22T03:32:05.210Z,2.13
2023-12-22T03:35:08.239Z,2.15
2023-12-22T03:38:11.214Z,2.12
2023-12-22T03:41:14.451Z,2.03
2023-12-22T03:44:17.350Z,1.92
2023-12-22T03:47:20.263Z,1.84
2023-12-22T03:50:23.214Z,1.78
2023-12-22T03:53:26.068Z,1.73
2023-12-22T03:56:28.907Z,1.72
2023-12-22T03:59:31.742Z,1.70
2023-12-22T04:02:34.728Z,1.72
2023-12-22T04:05:38.224Z,1.77
2023-12-22T04:08:41.128Z,1.86
2023-12-22T04:11:44.004Z,1.93
2023-12-22T04:14:46.883Z,1.99
2023-12-22T04:17:51.020Z,2.05
2023-12-22T04:20:56.524Z,2.11
2023-12-22T04:24:20.734Z,2.15
2023-12-22T04:27:23.662Z,2.19
2023-12-22T04:30:29.960Z,2.21
2023-12-22T04:33:34.185Z,2.23
2023-12-22T04:36:37.333Z,2.23
2023-12-22T04:39:40.182Z,2.27
2023-12-22T04:42:43.426Z,2.30
2023-12-22T04:45:46.249Z,2.32
2023-12-22T04:48:49.194Z,2.35
2023-12-22T04:51:52.079Z,2.37
2023-12-22T04:54:55.741Z,2.36
2023-12-22T04:57:58.720Z,2.34
2023-12-22T05:01:01.694Z,2.28
2023-12-22T05:04:04.710Z,2.23
2023-12-22T05:07:08.277Z,2.23
2023-12-22T05:10:11.197Z,2.19
2023-12-22T05:13:14.052Z,2.17
2023-12-22T05:16:17.478Z,2.11
2023-12-22T05:19:20.500Z,2.12
2023-12-22T05:22:23.462Z,2.09
2023-12-22T05:25:26.308Z,2.12
2023-12-22T05:28:29.233Z,2.15
2023-12-22T05:31:34.084Z,2.20
2023-12-22T05:34:38.227Z,2.23
2023-12-22T05:37:41.166Z,2.24
2023-12-22T05:40:44.114Z,2.22
2023-12-22T05:43:47.060Z,2.23
2023-12-22T05:46:49.997Z,2.21
2023-12-22T05:49:53.026Z,2.18
2023-12-22T05:52:56.053Z,2.13
2023-12-22T05:55:59.150Z,2.07
2023-12-22T05:59:02.294Z,2.02
2023-12-22T06:02:05.254Z,1.98
2023-12-22T06:05:08.626Z,1.92
2023-12-22T06:08:11.615Z,1.80
2023-12-22T06:11:15.216Z,1.68
2023-12-22T06:14:18.215Z,1.54
2023-12-22T06:17:21.107Z,1.42
2023-12-22T06:20:23.966Z,1.27
2023-12-22T06:23:26.840Z,1.14
2023-12-22T06:26:29.667Z,1.07
2023-12-22T06:29:32.894Z,0.99
2023-12-22T06:32:35.958Z,0.93
2023-12-22T06:35:39.010Z,0.91
2023-12-22T06:38:43.046Z,0.85
2023-12-22T06:41:45.890Z,0.80
2023-12-22T06:44:48.727Z,0.72
2023-12-22T06:47:51.908Z,0.66
2023-12-22T06:50:55.008Z,0.58
2023-12-22T06:53:58.716Z,0.53
2023-12-22T06:57:02.022Z,0.47
2023-12-22T07:00:06.135Z,0.41
2023-12-22T07:03:09.372Z,0.36
2023-12-22T07:06:12.744Z,0.37
2023-12-22T07:09:15.697Z,0.39
2023-12-22T07:12:18.826Z,0.44
2023-12-22T07:15:22.598Z,0.53
2023-12-22T07:18:26.630Z,0.68
2023-12-22T07:21:29.717Z,0.83
2023-12-22T07:24:32.591Z,1.00
2023-12-22T07:27:35.454Z,1.12
2023-12-22T07:30:38.385Z,1.20
2023-12-22T07:33:41.860Z,1.30
2023-12-22T07:36:51.017Z,1.40
2023-12-22T07:39:59.169Z,1.49
2023-12-22T07:43:02.398Z,1.55
2023-12-22T07:46:05.266Z,1.62
2023-12-22T07:49:08.311Z,1.63
2023-12-22T07:52:11.750Z,1.74
2023-12-22T07:55:15.026Z,1.80
2023-12-22T07:58:19.068Z,1.85
2023-12-22T08:01:22.042Z,1.84
2023-12-22T08:04:25.101Z,1.83
2023-12-22T08:07:28.021Z,1.85
2023-12-22T08:10:30.945Z,1.85
2023-12-22T08:13:34.092Z,1.80
2023-12-22T08:16:37.150Z,1.80
2023-12-22T08:19:45.807Z,1.78
2023-12-22T08:22:52.790Z,1.59
2023-12-22T08:25:59.113Z,1.40
2023-12-22T08:29:02.025Z,1.10
2023-12-22T08:32:05.412Z,0.60
2023-12-22T08:35:09.319Z,0.31
2023-12-22T08:38:14.654Z,0.20
2023-12-22T08:41:17.838Z,0.11
2023-12-22T08:44:20.975Z,0.15
2023-12-22T08:47:23.855Z,0.29
2023-12-22T08:50:27.125Z,0.42
2023-12-22T08:53:34.785Z,0.52
2023-12-22T08:56:38.254Z,0.67
2023-12-22T08:59:41.064Z,0.77
2023-12-22T09:02:44.090Z,0.81
2023-12-22T09:05:48.322Z,0.82
2023-12-22T09:08:51.590Z,0.80
2023-12-22T09:11:54.848Z,0.81
2023-12-22T09:14:59.460Z,0.92
2023-12-22T09:18:02.716Z,1.07
2023-12-22T09:21:05.603Z,1.18
2023-12-22T09:24:08.499Z,1.31
2023-12-22T09:27:11.472Z,1.47
2023-12-22T09:30:14.466Z,1.58
2023-12-22T09:33:17.768Z,1.66
2023-12-22T09:36:20.982Z,1.75
2023-12-22T09:39:23.960Z,1.88
2023-12-22T09:42:27.189Z,2.08
2023-12-22T09:45:32.108Z,2.30
2023-12-22T09:48:39.189Z,2.46
2023-12-22T09:51:44.149Z,2.81
2023-12-22T09:54:49.109Z,3.23
2023-12-22T09:57:53.411Z,3.42
2023-12-22T10:00:57.953Z,3.47
2023-12-22T10:04:01.138Z,3.43
2023-12-22T10:07:05.486Z,3.35
2023-12-22T10:10:09.703Z,3.18
2023-12-22T10:13:13.663Z,3.06
2023-12-22T10:16:16.685Z,3.11
2023-12-22T10:19:23.529Z,3.18
2023-12-22T10:22:26.596Z,3.31
2023-12-22T10:25:33.759Z,3.35
2023-12-22T10:28:36.759Z,3.51
2023-12-22T10:31:43.031Z,3.61
2023-12-22T10:34:46.021Z,3.59
2023-12-22T10:37:49.633Z,3.55
2023-12-22T10:40:52.842Z,3.44
2023-12-22T10:43:55.916Z,3.40
2023-12-22T10:46:59.557Z,3.21
2023-12-22T10:50:06.199Z,3.18
2023-12-22T10:53:09.181Z,3.14
2023-12-22T10:56:13.264Z,3.14
2023-12-22T10:59:24.761Z,3.20
2023-12-22T11:02:34.102Z,3.26
2023-12-22T11:05:38.183Z,3.43
2023-12-22T11:08:43.014Z,3.41
2023-12-22T11:11:47.604Z,3.31
2023-12-22T11:14:52.385Z,3.16
2023-12-22T11:17:57.947Z,3.11
2023-12-22T11:21:03.574Z,3.13
2023-12-22T11:24:08.166Z,3.31
2023-12-22T11:27:12.996Z,3.45
2023-12-22T11:30:16.325Z,3.55
2023-12-22T11:33:19.992Z,3.74
2023-12-22T11:36:24.397Z,3.93
2023-12-22T11:39:27.408Z,4.09
2023-12-22T11:42:39.643Z,4.26
2023-12-22T11:45:44.200Z,4.43
2023-12-22T11:48:51.675Z,4.30
2023-12-22T11:51:54.612Z,4.12
2023-12-22T11:54:58.023Z,4.00
2023-12-22T11:58:39.462Z,3.92
2023-12-22T12:01:42.646Z,3.78
2023-12-22T12:04:48.967Z,3.75
2023-12-22T12:07:52.440Z,3.63
2023-12-22T12:10:56.038Z,3.47
2023-12-22T12:14:12.923Z,3.52
2023-12-22T12:17:19.341Z,3.56
2023-12-22T12:20:23.465Z,3.70
2023-12-22T12:23:27.656Z,3.78
2023-12-22T12:26:30.910Z,3.90
2023-12-22T12:29:34.557Z,4.01
2023-12-22T12:32:37.868Z,4.21
2023-12-22T12:35:45.304Z,4.28
2023-12-22T12:39:09.737Z,4.30
2023-12-22T12:42:16.800Z,4.26
2023-12-22T12:45:27.322Z,4.21
2023-12-22T12:48:30.478Z,4.12
2023-12-22T12:51:39.017Z,3.95
2023-12-22T12:54:43.000Z,3.82
2023-12-22T12:57:46.001Z,3.62
2023-12-22T13:00:49.092Z,3.53
2023-12-22T13:04:26.154Z,3.42
2023-12-22T13:07:29.368Z,3.27
2023-12-22T13:10:33.544Z,3.20
2023-12-22T13:13:45.817Z,3.26
2023-12-22T13:16:48.782Z,3.29
2023-12-22T13:19:52.118Z,3.26
2023-12-22T13:22:56.227Z,3.23
2023-12-22T13:25:59.184Z,3.16
2023-12-22T13:29:02.460Z,3.13
2023-12-22T13:32:05.834Z,3.02
2023-12-22T13:35:10.053Z,2.92
2023-12-22T13:38:13.215Z,2.84
2023-12-22T13:41:20.434Z,2.75
2023-12-22T13:44:23.489Z,2.66
2023-12-22T13:47:28.141Z,2.59
2023-12-22T13:50:32.010Z,2.55
2023-12-22T13:53:36.896Z,2.55
2023-12-22T13:56:43.951Z,2.45
2023-12-22T13:59:47.154Z,2.47
2023-12-22T14:02:50.854Z,2.49
2023-12-22T14:05:54.579Z,2.46
2023-12-22T14:08:58.279Z,2.43
2023-12-22T14:12:05.645Z,2.28
2023-12-22T14:15:12.998Z,2.15
2023-12-22T14:18:15.948Z,2.05
2023-12-22T14:21:19.665Z,1.94
2023-12-22T14:24:22.535Z,1.80
2023-12-22T14:27:25.524Z,1.65
2023-12-22T14:30:28.575Z,1.56
2023-12-22T14:33:31.565Z,1.50
2023-12-22T14:36:34.480Z,1.40
2023-12-22T14:39:37.601Z,1.31
2023-12-22T14:42:40.502Z,1.22
2023-12-22T14:45:43.689Z,1.13
2023-12-22T14:48:46.793Z,1.12
2023-12-22T14:51:55.051Z,1.02
2023-12-22T14:54:58.307Z,0.98
2023-12-22T14:58:01.183Z,0.92
2023-12-22T15:01:04.415Z,0.84
2023-12-22T15:04:08.291Z,0.77
2023-12-22T15:07:11.382Z,0.68
2023-12-22T15:10:14.500Z,0.55
2023-12-22T15:13:17.548Z,0.45
2023-12-22T15:16:22.242Z,0.34
2023-12-22T15:19:25.929Z,0.25
2023-12-22T15:22:28.869Z,0.17
2023-12-22T15:25:31.769Z,0.12
2023-12-22T15:28:35.066Z,0.06
2023-12-22T15:31:38.805Z,0.00
2023-12-22T15:34:45.091Z,-0.04
2023-12-22T15:37:48.004Z,-0.08
2023-12-22T15:40:51.109Z,-0.10
2023-12-22T15:43:54.200Z,-0.08
2023-12-22T15:46:57.105Z,-0.08
2023-12-22T15:50:00.092Z,-0.05
2023-12-22T15:53:03.196Z,-0.06
2023-12-22T15:56:07.469Z,-0.05
2023-12-22T15:59:12.528Z,-0.05
2023-12-22T16:02:17.099Z,-0.07
2023-12-22T16:05:20.410Z,-0.10
2023-12-22T16:08:23.933Z,-0.12
2023-12-22T16:11:26.792Z,-0.12
2023-12-22T16:14:30.133Z,-0.08
2023-12-22T16:17:33.021Z,-0.06
2023-12-22T16:20:36.774Z,-0.02
2023-12-22T16:23:39.800Z,0.08
2023-12-22T16:26:44.612Z,0.14
2023-12-22T16:29:48.581Z,0.17
2023-12-22T16:32:52.151Z,0.19
2023-12-22T16:35:55.976Z,0.24
2023-12-22T16:38:59.111Z,0.33
2023-12-22T16:42:02.190Z,0.43
2023-12-22T16:45:07.418Z,0.49
2023-12-22T16:48:10.319Z,0.55
2023-12-22T16:51:16.091Z,0.59
2023-12-22T16:54:18.959Z,0.60
2023-12-22T16:57:22.047Z,0.63
2023-12-22T17:00:26.787Z,0.67
2023-12-22T17:03:30.382Z,0.71
2023-12-22T17:06:34.712Z,0.72
2023-12-22T17:09:37.967Z,0.72
2023-12-22T17:12:40.919Z,0.73
2023-12-22T17:15:44.156Z,0.71
2023-12-22T17:18:47.267Z,0.69
2023-12-22T17:21:50.133Z,0.70
2023-12-22T17:24:55.597Z,0.71
2023-12-22T17:27:58.605Z,0.70
2023-12-22T17:31:03.559Z,0.68
2023-12-22T17:34:07.649Z,0.64
2023-12-22T17:37:11.605Z,0.61
2023-12-22T17:40:14.698Z,0.64
2023-12-22T17:43:18.186Z,0.70
2023-12-22T17:46:21.073Z,0.82
2023-12-22T17:49:23.939Z,0.88
2023-12-22T17:52:26.755Z,0.91
2023-12-22T17:55:29.623Z,0.95
2023-12-22T17:58:32.570Z,0.99
2023-12-22T18:01:35.567Z,1.04
2023-12-22T18:04:39.230Z,1.04
2023-12-22T18:07:42.086Z,1.01
2023-12-22T18:10:45.573Z,0.98
2023-12-22T18:13:53.358Z,0.94
2023-12-22T18:16:56.347Z,0.94
2023-12-22T18:20:00.161Z,0.83
2023-12-22T18:23:03.493Z,0.73
2023-12-22T18:26:06.850Z,0.64
2023-12-22T18:29:10.022Z,0.53
2023-12-22T18:33:04.777Z,0.50
2023-12-22T18:36:08.436Z,0.51
2023-12-22T18:39:13.046Z,0.53
2023-12-22T18:42:15.899Z,0.57
2023-12-22T18:45:18.864Z,0.58
2023-12-22T18:48:21.904Z,0.57
2023-12-22T18:51:24.929Z,0.56
2023-12-22T18:54:27.803Z,0.58
2023-12-22T18:57:30.898Z,0.58
2023-12-22T19:00:33.831Z,0.55
2023-12-22T19:03:37.336Z,0.47
2023-12-22T19:06:40.442Z,0.39
2023-12-22T19:09:46.455Z,0.35
2023-12-22T19:12:50.951Z,0.29
2023-12-22T19:15:54.754Z,0.29
2023-12-22T19:18:57.684Z,0.28
2023-12-22T19:22:01.820Z,0.27
2023-12-22T19:25:04.976Z,0.27
2023-12-22T19:28:07.958Z,0.32
2023-12-22T19:31:10.912Z,0.36
2023-12-22T19:34:13.928Z,0.38
2023-12-22T19:37:19.541Z,0.39
2023-12-22T19:40:23.026Z,0.44
2023-12-22T19:43:26.145Z,0.43
2023-12-22T19:46:29.224Z,0.46
2023-12-22T19:49:32.437Z,0.49
2023-12-22T19:52:35.950Z,0.52
2023-12-22T19:55:39.256Z,0.50
2023-12-22T19:58:42.249Z,0.50
2023-12-22T20:01:46.237Z,0.48
2023-12-22T20:04:49.484Z,0.52
2023-12-22T20:07:52.889Z,0.54
2023-12-22T20:10:56.266Z,0.51
2023-12-22T20:14:00.034Z,0.49
2023-12-22T20:17:04.979Z,0.47
2023-12-22T20:20:10.595Z,0.51
2023-12-22T20:23:13.988Z,0.53
2023-12-22T20:26:17.183Z,0.53
2023-12-22T20:29:22.819Z,0.54
2023-12-22T20:32:27.833Z,0.53
2023-12-22T20:35:30.916Z,0.52
2023-12-22T20:38:34.650Z,0.53
2023-12-22T20:41:37.988Z,0.51
2023-12-22T20:44:41.223Z,0.53
2023-12-22T20:47:45.961Z,0.54
2023-12-22T20:50:49.559Z,0.55
2023-12-22T20:53:52.532Z,0.54
2023-12-22T20:56:55.526Z,0.54
2023-12-22T20:59:58.760Z,0.58
2023-12-22T21:03:02.188Z,0.60
2023-12-22T21:06:07.431Z,0.60
2023-12-22T21:09:10.597Z,0.60
2023-12-22T21:12:13.561Z,0.59
2023-12-22T21:15:16.606Z,0.58
2023-12-22T21:18:19.534Z,0.59
2023-12-22T21:21:22.914Z,0.60
2023-12-22T21:24:25.842Z,0.59
2023-12-22T21:27:28.789Z,0.55
2023-12-22T21:30:32.681Z,0.54
2023-12-22T21:33:37.877Z,0.52
2023-12-22T21:36:40.949Z,0.51
2023-12-22T21:39:43.989Z,0.51
2023-12-22T21:42:47.644Z,0.49
2023-12-22T21:45:51.158Z,0.49
2023-12-22T21:48:54.121Z,0.49
2023-12-22T21:51:57.028Z,0.46
2023-12-22T21:55:00.773Z,0.39
2023-12-22T21:58:03.926Z,0.34
2023-12-22T22:01:06.792Z,0.33
2023-12-22T22:04:09.735Z,0.28
2023-12-22T22:07:13.837Z,0.22
2023-12-22T22:10:16.758Z,0.19
2023-12-22T22:13:19.689Z,0.13
2023-12-22T22:16:22.629Z,0.08
2023-12-22T22:19:25.701Z,0.06
2023-12-22T22:22:29.672Z,0.03
2023-12-22T22:25:34.592Z,0.02
2023-12-22T22:28:41.969Z,-0.00
2023-12-22T22:31:44.952Z,0.01
2023-12-22T22:34:47.869Z,0.02
2023-12-22T22:37:51.025Z,0.07
2023-12-22T22:40:54.106Z,0.10
2023-12-22T22:43:57.076Z,0.13
2023-12-22T22:46:59.976Z,0.15
2023-12-22T22:50:03.588Z,0.16
2023-12-22T22:53:10.466Z,0.22
2023-12-22T22:56:13.528Z,0.28
2023-12-22T22:59:16.649Z,0.31
2023-12-22T23:02:19.626Z,0.33
2023-12-22T23:05:23.274Z,0.35
2023-12-22T23:08:26.258Z,0.40
2023-12-22T23:11:29.380Z,0.41
2023-12-22T23:14:32.263Z,0.44
2023-12-22T23:17:35.765Z,0.46
2023-12-22T23:20:39.648Z,0.50
2023-12-22T23:23:42.578Z,0.51
2023-12-22T23:26:45.494Z,0.53
2023-12-22T23:29:48.436Z,0.53
2023-12-22T23:32:51.390Z,0.50
2023-12-22T23:35:54.414Z,0.47
2023-12-22T23:38:57.306Z,0.47
2023-12-22T23:42:00.222Z,0.46
2023-12-22T23:45:04.619Z,0.42
2023-12-22T23:48:07.991Z,0.41
2023-12-22T23:51:13.029Z,0.38
2023-12-22T23:54:15.975Z,0.40
2023-12-22T23:57:18.805Z,0.40
